Strona główna
METAR-TAF:

METAR-TAF

Lotnisko :

Concord, New Hampshire, Stany Zjednoczone

Szerokość geograficzna: 43-11-43N, Długość geograficzna: 071-30-04W, wysokość: 105 m

Aktualna obserwacja pogody

Raport powstał 38 minut temu, godzina 00:51 UTC
Wiatr 6 kt od północny zachód
Temperatura -10°C
Wilgotność 44%
Ciśnienie 1025 hPa
Widzialność: 16.1 km
bezchmurnie

METAR: KCON 210051Z AUTO 31006KT 10SM CLR M10/M20 A3026 RMK AO2 SLP255 T11001200

czas: 20:29 (01:29 UTC)

Prognoza

Raport powstał 2 godziny i 9 minut temu, godzina 23:20 UTC
Prognoza ważna od 21 godzina 00 UTC do 21 godzina 24 UTC
Wiatr 5 kt od północny zachód
Widzialność: 10 km
bezchmurnie

TAF: KCON 202320Z 2100/2124 32005KT P6SM SKC

Obserwacja i prognoza pogody dla ponad 4000 lotnisk (raport METAR i TAF).

Dostępne stacje oznaczono żółtymi i czerwonymi punktami na mapie.

Najedź kursorem aby zobaczyć nazwę stacji.

Kliknij aby zobaczyć obserwacje i prognozy pogody.

Aby zmienić mapę: kliknij na zielony przycisk z czarnym krzyżykiem, aby powiększyć; na zielony przycisk z myślnikiem, aby pomniejszyć; na zielone strzałki, aby przejść do map sąsiednich.


METAR-TAF: